This is the latest recevied weather packets stored in our database for station/object SP6KBU-8. If no packets are shown the sender has not sent any weather packets the latest 10 day(s).
| Time | Temp. | Humidity | Pressure | Rain* | Wind** | Luminosity | Snow |
|---|---|---|---|---|---|---|---|
| 1777675082 | 9.44° C | 59% | 1027.4 hPa | - | - | - | - |
| 1777674184 | 10° C | 59% | 1027.4 hPa | - | - | - | - |
| 1777673285 | 10° C | 59% | 1027.5 hPa | - | - | - | - |
| 1777672387 | 10° C | 58% | 1027.5 hPa | - | - | - | - |
| 1777671488 | 10° C | 57% | 1027.5 hPa | - | - | - | - |
| 1777670590 | 10.56° C | 57% | 1027.5 hPa | - | - | - | - |
| 1777669692 | 10.56° C | 57% | 1027.6 hPa | - | - | - | - |
| 1777668793 | 10.56° C | 56% | 1027.6 hPa | - | - | - | - |
| 1777667895 | 11.11° C | 55% | 1027.7 hPa | - | - | - | - |
| 1777666996 | 11.11° C | 55% | 1027.7 hPa | - | - | - | - |
| 1777666097 | 11.11° C | 55% | 1027.6 hPa | - | - | - | - |
| 1777665198 | 11.11° C | 56% | 1027.6 hPa | - | - | - | - |
| 1777663398 | 11.67° C | 54% | 1027.6 hPa | - | - | - | - |
| 1777662500 | 12.22° C | 55% | 1027.5 hPa | - | - | - | - |
| 1777660702 | 13.89° C | 45% | 1027.2 hPa | - | - | - | - |
| 1777659804 | 15° C | 42% | 1027 hPa | - | - | - | - |
| 1777658905 | 16.11° C | 37% | 1026.9 hPa | - | - | - | - |
| 1777658007 | 17.22° C | 34% | 1026.7 hPa | - | - | - | - |
| 1777657109 | 18.33° C | 31% | 1026.7 hPa | - | - | - | - |
| 1777656210 | 20° C | 29% | 1026.6 hPa | - | - | - | - |
| 1777655312 | 22.22° C | 26% | 1026.6 hPa | - | - | - | - |
| 1777654414 | 23.33° C | 24% | 1026.6 hPa | - | - | - | - |
| 1777653515 | 25° C | 21% | 1026.7 hPa | - | - | - | - |
| 1777652615 | 25° C | 20% | 1026.8 hPa | - | - | - | - |
| 1777651715 | 25° C | 21% | 1026.8 hPa | - | - | - | - |
* Rain since midnight (hover to see other rain measurements)
** Current wind speed in m/s (hover to see current wind gust speed)